Time;durP1;ratioP1;P1;durP2;ratioP2;P2;SDS_P1;SDS_P2;PMS_P1;PMS_P2;Temp;Humidity;BMP_temperature;BMP_pressure;BME280_temperature;BME280_humidity;BME280_pressure;Samples;Min_cycle;Max_cycle;Signal;HPM_P1;HPM_P2
2022/04/06 00:01:00;;;;;;;4.22;1.60;;;18.20;54.80;;;;;;6152859;23;20160;-86
2022/04/06 00:03:25;;;;;;;4.60;1.30;;;18.20;54.30;;;;;;6178026;23;20153;-87
2022/04/06 00:05:51;;;;;;;4.00;1.38;;;18.20;54.30;;;;;;6202680;23;20446;-86
2022/04/06 00:08:17;;;;;;;3.67;1.23;;;18.20;54.70;;;;;;6201905;23;20145;-86
2022/04/06 00:10:42;;;;;;;2.40;1.17;;;18.20;54.90;;;;;;6227646;23;20161;-85
2022/04/06 00:13:08;;;;;;;4.57;1.30;;;18.20;54.60;;;;;;6227524;23;20146;-85
2022/04/06 00:15:39;;;;;;;3.53;1.00;;;18.20;54.70;;;;;;6202525;23;20481;-85
2022/04/06 00:18:04;;;;;;;8.02;1.20;;;18.20;54.40;;;;;;6151920;23;20599;-85
2022/04/06 00:20:36;;;;;;;5.60;1.92;;;18.20;54.90;;;;;;6202844;23;20156;-87
2022/04/06 00:23:02;;;;;;;2.40;0.95;;;18.20;54.60;;;;;;6176519;23;20161;-85
2022/04/06 00:25:28;;;;;;;2.70;1.20;;;18.20;54.20;;;;;;6203168;23;20571;-87
2022/04/06 00:27:56;;;;;;;5.43;1.30;;;18.20;54.90;;;;;;6227802;23;20134;-86
2022/04/06 00:30:25;;;;;;;2.80;1.00;;;18.10;54.80;;;;;;6227882;23;20632;-86
2022/04/06 00:32:54;;;;;;;4.28;1.13;;;18.10;54.50;;;;;;6176786;23;20627;-88
2022/04/06 00:38:06;;;;;;;3.35;1.30;;;18.20;54.90;;;;;;6161799;23;20169;-85
2022/04/06 00:40:35;;;;;;;3.75;1.25;;;18.20;54.70;;;;;;6153375;23;20207;-85
2022/04/06 00:43:06;;;;;;;3.75;1.20;;;18.20;54.70;;;;;;6151834;23;20149;-86
2022/04/06 00:45:36;;;;;;;3.65;1.20;;;18.10;54.80;;;;;;6153358;23;20157;-85
2022/04/06 00:48:06;;;;;;;4.10;1.20;;;18.20;54.40;;;;;;6152755;23;20615;-86
2022/04/06 00:50:34;;;;;;;5.93;1.50;;;18.10;54.60;;;;;;6152510;23;21096;-86
2022/04/06 00:53:02;;;;;;;3.83;1.30;;;18.10;54.60;;;;;;6177289;23;20549;-86
2022/04/06 00:55:31;;;;;;;3.47;1.02;;;18.10;54.50;;;;;;6153135;23;20157;-86
2022/04/06 00:58:00;;;;;;;4.35;1.10;;;18.10;54.00;;;;;;6202964;23;20136;-85
2022/04/06 01:00:29;;;;;;;3.00;1.35;;;18.10;54.80;;;;;;6175991;23;20161;-87
2022/04/06 01:02:55;;;;;;;4.43;1.20;;;18.10;54.10;;;;;;6152062;23;20157;-86
2022/04/06 01:05:21;;;;;;;3.13;1.00;;;18.10;54.80;;;;;;6202869;23;20268;-88
2022/04/06 01:07:48;;;;;;;3.47;1.30;;;18.20;54.40;;;;;;6202960;23;20133;-85
2022/04/06 01:10:14;;;;;;;4.60;1.20;;;18.00;54.60;;;;;;6177036;23;20173;-87
2022/04/06 01:12:46;;;;;;;3.88;1.08;;;18.00;54.60;;;;;;6203115;23;20144;-86
2022/04/06 01:15:16;;;;;;;3.45;1.05;;;18.10;54.60;;;;;;6178795;23;20153;-86
2022/04/06 01:17:45;;;;;;;2.53;1.10;;;18.00;54.70;;;;;;6177681;23;20153;-86
2022/04/06 01:20:12;;;;;;;5.03;1.17;;;18.10;54.70;;;;;;6177826;23;20573;-85
2022/04/06 01:22:39;;;;;;;4.88;1.15;;;18.10;54.10;;;;;;6203184;23;20165;-89
2022/04/06 01:25:08;;;;;;;6.03;1.35;;;18.20;54.90;;;;;;6202763;23;20149;-88
2022/04/06 01:27:38;;;;;;;5.13;1.20;;;18.10;54.80;;;;;;6177229;23;20207;-85
2022/04/06 01:30:09;;;;;;;2.78;1.38;;;18.00;54.00;;;;;;6176709;23;20205;-86
2022/04/06 01:32:37;;;;;;;3.85;1.30;;;18.10;54.80;;;;;;6153030;23;20200;-85
2022/04/06 01:35:07;;;;;;;3.25;1.08;;;18.10;54.90;;;;;;6127698;23;20164;-87
2022/04/06 01:37:37;;;;;;;2.67;0.90;;;18.00;54.60;;;;;;6152293;23;20223;-87
2022/04/06 01:40:06;;;;;;;2.70;1.02;;;18.00;54.60;;;;;;6151266;23;20149;-87
2022/04/06 01:42:32;;;;;;;3.20;1.20;;;18.00;55.10;;;;;;6152069;23;20164;-87
2022/04/06 01:44:58;;;;;;;3.90;1.05;;;18.10;54.60;;;;;;6202643;23;20134;-86
2022/04/06 01:47:23;;;;;;;3.50;1.10;;;18.00;54.60;;;;;;6202071;23;20134;-86
2022/04/06 01:52:37;;;;;;;3.40;1.10;;;18.00;54.80;;;;;;6211648;23;20515;-86
2022/04/06 01:55:09;;;;;;;5.53;1.23;;;18.00;54.60;;;;;;6201928;23;20228;-86
2022/04/06 01:57:37;;;;;;;3.20;1.02;;;18.00;54.70;;;;;;6177834;23;20173;-86
2022/04/06 02:00:06;;;;;;;2.75;1.23;;;18.00;54.60;;;;;;6202525;23;20187;-86
2022/04/06 02:02:32;;;;;;;2.05;1.23;;;18.00;54.80;;;;;;6177852;23;20240;-85
2022/04/06 02:04:59;;;;;;;3.85;1.20;;;18.00;54.50;;;;;;6178152;23;20145;-86
2022/04/06 02:07:29;;;;;;;4.13;1.08;;;18.00;54.50;;;;;;6203999;23;20217;-89
2022/04/06 02:10:00;;;;;;;2.17;1.20;;;18.00;54.10;;;;;;6152387;23;20258;-85
2022/04/06 02:12:29;;;;;;;2.60;1.08;;;18.00;54.20;;;;;;6153859;23;20149;-86
2022/04/06 02:15:01;;;;;;;2.95;1.33;;;18.00;54.80;;;;;;6129952;23;20149;-86
2022/04/06 02:17:30;;;;;;;3.78;1.17;;;18.10;54.60;;;;;;6151665;23;20156;-85
2022/04/06 02:19:59;;;;;;;5.32;1.20;;;18.00;54.60;;;;;;6128095;23;20572;-85
2022/04/06 02:22:25;;;;;;;3.95;1.50;;;18.00;54.70;;;;;;6127713;23;20157;-85
2022/04/06 02:24:52;;;;;;;3.08;1.30;;;18.00;54.80;;;;;;6202534;23;20503;-85
2022/04/06 02:27:22;;;;;;;2.83;1.20;;;18.00;54.50;;;;;;6177653;23;20462;-86
2022/04/06 02:29:49;;;;;;;3.33;1.23;;;18.00;54.50;;;;;;6152537;23;20643;-85
2022/04/06 02:32:15;;;;;;;4.07;1.08;;;18.00;54.70;;;;;;6151933;23;20281;-88
2022/04/06 02:34:45;;;;;;;1.40;0.80;;;18.00;54.50;;;;;;6227961;23;20137;-85
2022/04/06 02:37:14;;;;;;;2.80;1.20;;;18.00;54.70;;;;;;6176340;23;20149;-89
2022/04/06 02:39:41;;;;;;;1.77;0.90;;;18.00;54.70;;;;;;6152133;23;20153;-86
2022/04/06 02:42:07;;;;;;;4.38;1.63;;;18.00;54.20;;;;;;6152585;23;20160;-85
2022/04/06 02:44:34;;;;;;;2.10;1.20;;;18.00;54.60;;;;;;6201949;23;20232;-87
2022/04/06 02:47:07;;;;;;;3.38;1.10;;;18.00;54.50;;;;;;6175911;23;20706;-87
2022/04/06 02:49:34;;;;;;;2.83;0.80;;;18.00;54.30;;;;;;6176678;23;20188;-87
2022/04/06 02:51:59;;;;;;;2.97;1.05;;;17.90;54.50;;;;;;6152325;23;20149;-86
2022/04/06 02:54:25;;;;;;;2.83;1.25;;;18.00;54.20;;;;;;6201940;23;20160;-88
2022/04/06 02:56:51;;;;;;;3.38;1.00;;;18.00;54.70;;;;;;6202566;23;20221;-85
2022/04/06 02:59:18;;;;;;;2.35;0.80;;;17.90;54.40;;;;;;6202730;23;20171;-86
2022/04/06 03:01:45;;;;;;;3.90;1.33;;;17.90;54.40;;;;;;6227851;23;20146;-86
2022/04/06 03:04:10;;;;;;;4.10;1.20;;;18.00;54.20;;;;;;6202339;23;20162;-87
2022/04/06 03:06:37;;;;;;;2.40;1.05;;;18.00;54.60;;;;;;6226818;23;20146;-86
2022/04/06 03:09:04;;;;;;;4.20;1.17;;;18.00;54.50;;;;;;6228096;23;20126;-87
2022/04/06 03:11:29;;;;;;;4.32;1.23;;;17.90;54.30;;;;;;6226784;23;20180;-88
2022/04/06 03:13:55;;;;;;;2.33;1.13;;;17.90;54.70;;;;;;6227444;23;20126;-86
2022/04/06 03:16:21;;;;;;;4.05;1.35;;;17.90;54.40;;;;;;6227183;23;20130;-88
2022/04/06 03:18:47;;;;;;;3.22;1.23;;;17.90;54.60;;;;;;6227308;23;20217;-86
2022/04/06 03:21:20;;;;;;;3.05;1.30;;;17.90;54.10;;;;;;6227929;23;20160;-85
2022/04/06 03:23:50;;;;;;;3.13;1.10;;;17.90;54.60;;;;;;6127196;23;20157;-86
2022/04/06 03:26:19;;;;;;;3.08;1.10;;;17.90;54.30;;;;;;6150515;23;20212;-86
2022/04/06 03:28:48;;;;;;;4.60;1.27;;;17.90;54.50;;;;;;6151608;23;20593;-88
2022/04/06 03:31:14;;;;;;;1.67;1.10;;;17.90;54.40;;;;;;6175420;23;20516;-86
2022/04/06 03:33:44;;;;;;;2.85;1.00;;;17.90;54.30;;;;;;6227376;23;20189;-86
2022/04/06 03:36:13;;;;;;;2.72;1.13;;;17.90;54.20;;;;;;6175609;23;20157;-88
2022/04/06 03:38:43;;;;;;;2.65;0.95;;;17.90;54.50;;;;;;6177110;23;20153;-86
2022/04/06 03:41:14;;;;;;;1.85;0.93;;;17.90;54.50;;;;;;6126748;23;20164;-88
2022/04/06 03:43:42;;;;;;;2.35;0.98;;;17.90;54.40;;;;;;6151117;23;20481;-87
2022/04/06 03:46:08;;;;;;;3.65;1.08;;;17.90;54.40;;;;;;6126905;23;20457;-85
2022/04/06 03:48:33;;;;;;;1.48;0.95;;;17.90;54.50;;;;;;6227016;23;20144;-86
2022/04/06 03:50:59;;;;;;;3.13;1.00;;;17.90;54.10;;;;;;6201454;23;20169;-86
2022/04/06 03:53:24;;;;;;;4.88;1.10;;;17.90;54.50;;;;;;6225203;23;20141;-89
2022/04/06 03:55:51;;;;;;;3.25;1.10;;;17.90;54.40;;;;;;6199639;23;20214;-85
2022/04/06 03:58:17;;;;;;;2.63;1.00;;;17.90;54.20;;;;;;6224173;23;20601;-85
2022/04/06 04:00:43;;;;;;;3.92;1.00;;;17.90;54.10;;;;;;6175209;23;20229;-86
2022/04/06 04:03:11;;;;;;;2.38;0.90;;;17.90;54.40;;;;;;6224936;23;20154;-86
2022/04/06 04:05:36;;;;;;;2.53;0.98;;;17.90;54.60;;;;;;6250650;23;20172;-86
2022/04/06 04:08:04;;;;;;;2.50;1.20;;;17.80;54.50;;;;;;6199951;23;20130;-86
2022/04/06 04:10:34;;;;;;;3.78;1.17;;;17.90;53.70;;;;;;6150347;23;20191;-86
2022/04/06 04:13:02;;;;;;;4.65;1.23;;;17.90;54.20;;;;;;6174957;23;20225;-85
2022/04/06 04:15:31;;;;;;;5.05;1.05;;;18.00;54.00;;;;;;6174984;23;20200;-86
2022/04/06 04:17:58;;;;;;;2.20;0.88;;;17.90;54.40;;;;;;6177149;23;20153;-87
2022/04/06 04:20:28;;;;;;;2.70;0.98;;;17.90;53.80;;;;;;6175564;23;20244;-87
2022/04/06 04:22:54;;;;;;;3.05;1.17;;;17.90;54.10;;;;;;6151494;23;20153;-89
2022/04/06 04:25:25;;;;;;;3.13;0.98;;;18.00;54.10;;;;;;6150472;23;20160;-89
2022/04/06 04:27:52;;;;;;;3.75;1.00;;;17.90;53.70;;;;;;6127215;23;20156;-88
2022/04/06 04:30:23;;;;;;;3.28;0.98;;;17.90;53.70;;;;;;6150813;23;20181;-84
2022/04/06 04:32:49;;;;;;;2.33;1.02;;;17.90;54.10;;;;;;6151690;23;20193;-87
2022/04/06 04:35:15;;;;;;;4.03;1.15;;;17.90;53.70;;;;;;6204081;23;20141;-86
2022/04/06 04:37:42;;;;;;;2.65;0.93;;;17.80;53.50;;;;;;6205383;23;20125;-86
2022/04/06 04:40:09;;;;;;;3.38;1.45;;;17.80;53.60;;;;;;6205962;23;20134;-85
2022/04/06 04:42:35;;;;;;;3.33;1.00;;;17.90;53.30;;;;;;6230646;23;20141;-85
2022/04/06 04:45:03;;;;;;;2.15;0.90;;;17.90;53.90;;;;;;6206815;23;20130;-88
2022/04/06 04:47:33;;;;;;;1.45;0.90;;;18.00;52.90;;;;;;6183258;23;20149;-84
2022/04/06 04:50:02;;;;;;;2.17;0.90;;;18.00;54.00;;;;;;6157366;23;20173;-87
2022/04/06 04:52:36;;;;;;;4.75;1.13;;;17.90;53.30;;;;;;6181757;23;20153;-85
2022/04/06 04:55:07;;;;;;;2.17;1.02;;;18.00;53.60;;;;;;6182089;23;20153;-85
2022/04/06 04:57:36;;;;;;;1.98;0.90;;;18.00;52.90;;;;;;6157798;23;20153;-86
2022/04/06 05:00:09;;;;;;;1.58;0.88;;;18.00;52.60;;;;;;6157707;23;20168;-85
2022/04/06 05:02:40;;;;;;;3.50;1.00;;;18.10;51.60;;;;;;6156493;23;20203;-85
2022/04/06 05:05:07;;;;;;;2.35;1.05;;;18.20;51.90;;;;;;6156816;23;20154;-84
2022/04/06 05:07:37;;;;;;;2.03;1.02;;;18.30;50.80;;;;;;6207522;23;20167;-85
2022/04/06 05:10:09;;;;;;;1.58;0.95;;;18.20;51.90;;;;;;6233257;23;20173;-84
2022/04/06 05:12:39;;;;;;;1.63;0.90;;;18.20;52.50;;;;;;6156406;23;20172;-85
2022/04/06 05:15:10;;;;;;;2.67;0.80;;;18.20;51.60;;;;;;6156017;23;20217;-85
2022/04/06 05:17:37;;;;;;;2.45;0.95;;;18.20;51.20;;;;;;6132479;23;20595;-85
2022/04/06 05:20:06;;;;;;;2.10;1.02;;;18.30;51.30;;;;;;6180089;23;20231;-84
2022/04/06 05:22:34;;;;;;;2.35;1.13;;;18.30;51.60;;;;;;6208780;23;20142;-84
2022/04/06 05:25:04;;;;;;;3.60;1.17;;;18.30;52.10;;;;;;6206760;23;20138;-86
2022/04/06 05:27:31;;;;;;;1.73;0.88;;;18.30;51.00;;;;;;6135482;23;20619;-85
2022/04/06 05:29:59;;;;;;;1.02;0.88;;;18.30;51.20;;;;;;6207085;23;20216;-86
2022/04/06 05:32:24;;;;;;;3.13;1.00;;;18.30;51.40;;;;;;6155215;23;20256;-85
2022/04/06 05:34:56;;;;;;;1.52;0.90;;;18.40;51.00;;;;;;6207280;23;20137;-86
2022/04/06 05:37:24;;;;;;;3.63;1.05;;;18.40;50.70;;;;;;6156463;23;20482;-85
2022/04/06 05:39:51;;;;;;;1.40;0.90;;;18.40;50.30;;;;;;6156205;23;20220;-85
2022/04/06 05:42:18;;;;;;;1.65;1.02;;;18.40;50.40;;;;;;6181918;23;20184;-85
2022/04/06 05:44:48;;;;;;;2.42;1.10;;;18.50;50.60;;;;;;6181312;23;20156;-85
2022/04/06 05:47:14;;;;;;;2.35;0.88;;;18.40;51.30;;;;;;6156956;23;20215;-85
2022/04/06 05:49:41;;;;;;;1.45;0.93;;;18.40;50.40;;;;;;6154908;23;20260;-83
2022/04/06 05:52:12;;;;;;;1.38;0.90;;;18.40;50.70;;;;;;6209209;23;20187;-83
2022/04/06 05:54:38;;;;;;;0.80;0.60;;;18.50;48.90;;;;;;6158321;23;20152;-83
2022/04/06 05:57:04;;;;;;;1.88;0.88;;;18.60;48.50;;;;;;6233621;23;20472;-85
2022/04/06 05:59:31;;;;;;;1.33;0.70;;;18.60;48.30;;;;;;6231951;23;20152;-87
2022/04/06 06:02:01;;;;;;;2.72;0.93;;;18.70;48.50;;;;;;6258344;23;20515;-86
2022/04/06 06:04:27;;;;;;;1.52;0.88;;;18.70;48.70;;;;;;6155762;23;20145;-86
2022/04/06 06:06:55;;;;;;;2.92;0.95;;;18.70;49.20;;;;;;6205754;23;20161;-84
2022/04/06 06:09:25;;;;;;;2.88;0.75;;;18.70;48.70;;;;;;6179239;23;20141;-87
2022/04/06 06:11:55;;;;;;;0.60;0.60;;;18.70;49.30;;;;;;6178225;23;20172;-87
2022/04/06 06:14:25;;;;;;;3.03;0.90;;;18.70;49.10;;;;;;6177346;23;20146;-88
2022/04/06 06:16:52;;;;;;;1.13;0.70;;;18.70;49.10;;;;;;6151529;23;20153;-86
2022/04/06 06:19:18;;;;;;;1.85;0.70;;;18.70;48.90;;;;;;6204446;23;20137;-86
2022/04/06 06:21:44;;;;;;;1.60;0.60;;;18.70;48.90;;;;;;6225008;23;20148;-85
2022/04/06 06:24:12;;;;;;;1.02;0.90;;;18.70;49.00;;;;;;6226671;23;20623;-87
2022/04/06 06:26:42;;;;;;;2.72;0.90;;;18.80;47.30;;;;;;6228576;23;20562;-86
2022/04/06 06:29:08;;;;;;;1.40;0.70;;;18.80;47.70;;;;;;6173816;23;20169;-84
2022/04/06 06:31:34;;;;;;;2.25;0.75;;;18.90;47.80;;;;;;6226766;23;20189;-87
2022/04/06 06:34:03;;;;;;;2.33;1.10;;;18.90;48.00;;;;;;6254315;23;20130;-84
2022/04/06 06:36:29;;;;;;;1.10;0.70;;;19.00;47.70;;;;;;6225873;23;20141;-84
2022/04/06 06:38:54;;;;;;;0.82;0.68;;;19.00;47.40;;;;;;6201101;23;20160;-85
2022/04/06 06:41:22;;;;;;;1.23;0.80;;;19.00;47.70;;;;;;6199538;23;20130;-88
2022/04/06 06:43:54;;;;;;;1.98;1.10;;;19.00;48.30;;;;;;6175560;23;20160;-84
2022/04/06 06:46:25;;;;;;;1.00;0.90;;;19.00;48.60;;;;;;6182562;23;20180;-89
2022/04/06 06:49:38;;;;;;;;;;;;;;;;;;;;;
2022/04/06 06:52:06;;;;;;;0.60;0.60;;;19.00;48.90;;;;;;6207011;23;20275;-89
2022/04/06 06:54:41;;;;;;;1.75;0.55;;;18.90;48.40;;;;;;6229584;23;20613;-87
2022/04/06 06:57:13;;;;;;;2.28;0.70;;;18.90;47.90;;;;;;6228498;23;20152;-89
2022/04/06 06:59:46;;;;;;;1.75;0.90;;;18.90;47.40;;;;;;6179656;23;20180;-87
2022/04/06 07:02:12;;;;;;;0.77;0.60;;;19.00;47.90;;;;;;6207334;23;20142;-85
2022/04/06 07:04:46;;;;;;;1.60;0.60;;;19.00;47.50;;;;;;6204378;23;20149;-83
2022/04/06 07:07:12;;;;;;;2.80;0.63;;;19.10;47.40;;;;;;6183054;23;20161;-85
2022/04/06 07:09:42;;;;;;;1.15;0.70;;;19.10;47.10;;;;;;6205662;23;20138;-84
2022/04/06 07:12:08;;;;;;;1.60;0.70;;;19.00;48.00;;;;;;6181913;23;20149;-84
2022/04/06 07:14:37;;;;;;;2.00;0.90;;;19.00;47.60;;;;;;6194476;23;20157;-87
2022/04/06 07:17:08;;;;;;;2.13;0.90;;;19.10;47.50;;;;;;6120140;23;20165;-85
2022/04/06 07:19:36;;;;;;;2.15;0.80;;;19.00;48.40;;;;;;6167134;23;20163;-85
2022/04/06 07:22:04;;;;;;;2.03;0.80;;;19.00;48.10;;;;;;6193210;23;20322;-82
2022/04/06 07:24:32;;;;;;;0.90;0.77;;;19.00;48.30;;;;;;6143285;23;20151;-82
2022/04/06 07:26:59;;;;;;;2.33;0.85;;;18.90;48.00;;;;;;6142137;23;20163;-83
2022/04/06 07:29:24;;;;;;;2.53;0.85;;;19.00;48.40;;;;;;6166013;23;20150;-82
2022/04/06 07:31:50;;;;;;;1.50;0.73;;;19.10;47.30;;;;;;6190766;23;20552;-84
2022/04/06 07:34:18;;;;;;;0.88;0.70;;;19.10;47.40;;;;;;6169291;23;20158;-82
2022/04/06 07:36:44;;;;;;;0.90;0.80;;;19.10;47.00;;;;;;6170785;23;20203;-84
2022/04/06 07:39:10;;;;;;;1.40;0.80;;;19.20;47.10;;;;;;6169460;23;20151;-88
2022/04/06 07:41:36;;;;;;;1.23;0.73;;;19.20;47.30;;;;;;6166814;23;20234;-83
2022/04/06 07:44:04;;;;;;;0.98;0.80;;;19.10;47.10;;;;;;6191604;23;20680;-82
2022/04/06 07:46:30;;;;;;;2.05;0.90;;;19.20;47.70;;;;;;6226074;23;20244;-87
2022/04/06 07:48:55;;;;;;;0.77;0.70;;;19.10;48.20;;;;;;6226763;23;20141;-84
2022/04/06 07:51:22;;;;;;;4.18;0.60;;;19.10;46.80;;;;;;6255603;23;20580;-86
2022/04/06 07:53:49;;;;;;;0.85;0.65;;;19.20;46.70;;;;;;6256901;23;20465;-86
2022/04/06 07:56:15;;;;;;;1.08;0.63;;;19.20;46.40;;;;;;6202120;23;20134;-86
2022/04/06 07:58:41;;;;;;;1.45;0.80;;;19.30;46.80;;;;;;6203203;23;20134;-83
2022/04/06 08:01:09;;;;;;;0.98;0.70;;;19.20;47.40;;;;;;6201370;23;20485;-85
2022/04/06 08:03:36;;;;;;;0.73;0.70;;;19.20;47.20;;;;;;6227099;23;20153;-84
2022/04/06 08:06:03;;;;;;;1.63;0.70;;;19.20;46.70;;;;;;6177983;23;20209;-85
2022/04/06 08:08:29;;;;;;;1.67;0.82;;;19.20;47.20;;;;;;6201998;23;20149;-84
2022/04/06 08:10:55;;;;;;;1.70;0.80;;;19.20;47.40;;;;;;6228612;23;20685;-87
2022/04/06 08:13:22;;;;;;;1.55;0.73;;;19.10;46.80;;;;;;6204969;23;20134;-83
2022/04/06 08:15:47;;;;;;;1.73;0.80;;;19.10;47.30;;;;;;6203551;23;20169;-87
2022/04/06 08:18:13;;;;;;;0.98;0.70;;;19.10;48.20;;;;;;6204379;23;20187;-85
2022/04/06 08:20:40;;;;;;;1.73;0.90;;;19.10;47.50;;;;;;6204620;23;20141;-87
2022/04/06 08:23:06;;;;;;;1.48;0.88;;;19.10;47.30;;;;;;6226231;23;20149;-84
2022/04/06 08:25:33;;;;;;;2.30;0.82;;;19.10;47.70;;;;;;6225759;23;20145;-85
2022/04/06 08:27:58;;;;;;;1.25;0.70;;;19.00;47.80;;;;;;6203377;23;20164;-87
2022/04/06 08:30:24;;;;;;;1.75;0.80;;;19.10;47.30;;;;;;6202798;23;20161;-85
2022/04/06 08:32:58;;;;;;;1.65;0.93;;;19.10;46.70;;;;;;6225893;23;20193;-86
2022/04/06 08:35:28;;;;;;;0.68;0.63;;;19.20;46.90;;;;;;6159312;23;20191;-87
2022/04/06 08:37:56;;;;;;;1.77;0.80;;;19.20;46.60;;;;;;6178073;23;20159;-87
2022/04/06 08:40:25;;;;;;;0.60;0.57;;;19.10;47.30;;;;;;6206656;23;20237;-81
2022/04/06 08:42:50;;;;;;;1.02;0.80;;;19.20;46.40;;;;;;6232091;23;20133;-84
2022/04/06 08:45:17;;;;;;;1.05;0.60;;;19.30;47.00;;;;;;6229463;23;20576;-83
2022/04/06 08:47:45;;;;;;;2.15;0.68;;;19.20;46.20;;;;;;6201708;23;20232;-84
2022/04/06 08:50:21;;;;;;;0.98;0.80;;;19.30;46.30;;;;;;6177060;23;20180;-83
2022/04/06 08:52:47;;;;;;;1.20;0.70;;;19.30;46.70;;;;;;6203409;23;20191;-87
2022/04/06 08:55:17;;;;;;;2.47;1.00;;;19.30;46.90;;;;;;6201638;23;20248;-84
2022/04/06 08:57:43;;;;;;;1.42;0.68;;;19.30;47.00;;;;;;6126755;23;20153;-88
2022/04/06 09:00:10;;;;;;;2.00;0.82;;;19.30;46.90;;;;;;6201200;23;20184;-86
2022/04/06 09:02:35;;;;;;;3.10;0.80;;;19.30;46.50;;;;;;6199044;23;20141;-87
2022/04/06 09:05:03;;;;;;;4.72;1.05;;;19.20;47.20;;;;;;6223970;23;20171;-84
2022/04/06 09:07:31;;;;;;;2.60;0.95;;;19.20;47.70;;;;;;6231504;23;20224;-82
2022/04/06 09:10:00;;;;;;;5.38;1.10;;;19.20;48.20;;;;;;6204346;23;20168;-82
2022/04/06 09:12:30;;;;;;;2.95;1.10;;;19.10;48.30;;;;;;6227393;23;20132;-86
2022/04/06 09:15:04;;;;;;;10.77;1.25;;;19.10;47.70;;;;;;6153969;23;20168;-85
2022/04/06 09:17:42;;;;;;;6.18;1.27;;;19.10;48.40;;;;;;6202425;23;20145;-85
2022/04/06 09:20:14;;;;;;;8.55;1.13;;;19.20;47.80;;;;;;6231493;23;20168;-87
2022/04/06 09:22:49;;;;;;;2.75;0.80;;;19.20;47.80;;;;;;6179565;23;20207;-84
2022/04/06 09:25:19;;;;;;;8.45;1.00;;;19.20;47.00;;;;;;6225982;23;20149;-87
2022/04/06 09:27:45;;;;;;;3.83;1.13;;;19.20;48.40;;;;;;6157208;23;20281;-85
2022/04/06 09:30:23;;;;;;;3.80;0.95;;;19.20;48.20;;;;;;6110149;23;20183;-86
2022/04/06 09:32:57;;;;;;;3.65;0.90;;;19.20;47.50;;;;;;6160894;23;20191;-85
2022/04/06 09:35:25;;;;;;;2.20;0.93;;;19.20;47.50;;;;;;6082711;23;20255;-85
2022/04/06 09:38:19;;;;;;;2.15;1.02;;;19.10;47.50;;;;;;6082056;23;20172;-87
2022/04/06 09:40:45;;;;;;;4.38;0.68;;;19.20;47.40;;;;;;6060283;23;20180;-89
2022/04/06 09:43:29;;;;;;;6.15;0.90;;;19.20;47.60;;;;;;6126611;23;20443;-88
2022/04/06 09:48:51;;;;;;;2.10;0.80;;;19.20;45.60;;;;;;6086086;23;20156;-85
2022/04/06 09:51:16;;;;;;;2.13;0.60;;;19.40;45.80;;;;;;6080282;23;20183;-86
2022/04/06 09:53:49;;;;;;;1.85;0.90;;;19.40;46.50;;;;;;6055249;23;20159;-85
2022/04/06 09:56:17;;;;;;;2.65;0.90;;;19.40;47.20;;;;;;6057313;23;20248;-86
2022/04/06 09:58:57;;;;;;;4.05;1.02;;;19.30;46.70;;;;;;6116128;23;20158;-85
2022/04/06 10:01:26;;;;;;;3.03;0.77;;;19.30;46.70;;;;;;6148468;23;20165;-84
2022/04/06 10:03:57;;;;;;;1.83;0.70;;;19.40;46.90;;;;;;6172042;23;20176;-84
2022/04/06 10:06:30;;;;;;;2.40;0.93;;;19.40;46.30;;;;;;6123527;23;20212;-88
2022/04/06 10:09:02;;;;;;;2.72;0.90;;;19.40;46.70;;;;;;6146399;23;20154;-90
2022/04/06 10:11:28;;;;;;;2.97;0.90;;;19.40;47.10;;;;;;6097155;23;20182;-84
2022/04/06 10:13:56;;;;;;;3.20;0.90;;;19.40;46.80;;;;;;6170863;23;20189;-85
2022/04/06 10:16:24;;;;;;;1.90;0.90;;;19.40;46.80;;;;;;6147862;23;20185;-89
2022/04/06 10:18:51;;;;;;;2.05;0.70;;;19.40;46.60;;;;;;6175905;23;20130;-86
2022/04/06 10:21:30;;;;;;;2.35;0.70;;;19.40;46.60;;;;;;6179281;23;20131;-88
2022/04/06 10:24:22;;;;;;;3.03;1.13;;;19.40;47.10;;;;;;6179945;23;20137;-85
2022/04/06 10:27:21;;;;;;;1.98;0.80;;;19.40;46.30;;;;;;6202874;23;20134;-89
2022/04/06 10:30:17;;;;;;;3.33;0.85;;;19.40;46.70;;;;;;6201250;23;20189;-88
2022/04/06 10:32:45;;;;;;;0.80;0.60;;;19.30;46.20;;;;;;6128470;23;20250;-88
2022/04/06 10:35:34;;;;;;;0.77;0.60;;;19.40;46.80;;;;;;6161275;23;20148;-87
2022/04/06 10:38:17;;;;;;;1.40;0.77;;;19.20;47.30;;;;;;6154668;23;20147;-86
2022/04/06 10:41:03;;;;;;;2.08;0.90;;;19.20;47.50;;;;;;6157256;23;20263;-87
2022/04/06 10:43:44;;;;;;;1.88;1.15;;;19.20;47.60;;;;;;6139347;23;20147;-86
2022/04/06 10:46:14;;;;;;;2.25;0.65;;;19.20;46.70;;;;;;6139455;23;20255;-87
2022/04/06 10:49:12;;;;;;;2.83;0.90;;;19.10;47.50;;;;;;6161630;23;20214;-87
2022/04/06 10:51:40;;;;;;;1.63;0.70;;;19.20;45.60;;;;;;6140890;23;20235;-88
2022/04/06 10:54:34;;;;;;;1.13;0.75;;;19.10;46.80;;;;;;6158599;23;20200;-86
2022/04/06 10:57:00;;;;;;;3.45;0.98;;;19.10;46.60;;;;;;6139362;23;20139;-85
2022/04/06 10:59:30;;;;;;;2.33;1.25;;;19.10;46.00;;;;;;6135449;23;20155;-85
2022/04/06 11:02:19;;;;;;;1.40;0.55;;;19.10;47.00;;;;;;6162543;23;20163;-84
2022/04/06 11:04:45;;;;;;;3.25;0.75;;;19.10;44.30;;;;;;6198777;23;20156;-84
2022/04/06 11:07:12;;;;;;;1.23;0.60;;;19.10;45.90;;;;;;6172250;23;20142;-86
2022/04/06 11:12:17;;;;;;;1.45;0.60;;;19.10;46.30;;;;;;6199323;23;20136;-86
2022/04/06 11:14:47;;;;;;;3.45;0.82;;;19.10;46.10;;;;;;6196120;23;20406;-87
2022/04/06 11:17:37;;;;;;;2.10;0.80;;;19.10;44.70;;;;;;6201526;23;20638;-87
2022/04/06 11:20:08;;;;;;;2.97;0.88;;;19.10;45.40;;;;;;6207388;23;20134;-87
2022/04/06 11:22:35;;;;;;;1.50;0.88;;;19.10;45.00;;;;;;6209021;23;20557;-85
2022/04/06 11:25:20;;;;;;;;;;;;;;;;;;;;;
2022/04/06 11:27:46;;;;;;;2.40;0.75;;;19.20;46.70;;;;;;6236947;23;20153;-86
2022/04/06 11:30:16;;;;;;;1.05;0.60;;;19.20;46.10;;;;;;6186017;23;20176;-86
2022/04/06 11:32:43;;;;;;;2.08;0.98;;;19.20;46.10;;;;;;6185702;23;20189;-85
2022/04/06 11:35:12;;;;;;;1.13;0.80;;;19.20;46.20;;;;;;6185310;23;20144;-85
2022/04/06 11:37:41;;;;;;;1.65;0.95;;;19.20;47.00;;;;;;6206804;23;20137;-87
2022/04/06 11:40:07;;;;;;;0.70;0.70;;;19.20;47.20;;;;;;6204035;23;20596;-85
2022/04/06 11:42:34;;;;;;;1.30;0.60;;;19.10;47.10;;;;;;6205280;23;20228;-87
2022/04/06 11:45:02;;;;;;;2.63;0.90;;;19.10;46.60;;;;;;6199042;23;20191;-87
2022/04/06 11:47:36;;;;;;;0.75;0.63;;;19.20;46.70;;;;;;6148515;23;20654;-87
2022/04/06 11:50:09;;;;;;;0.70;0.70;;;19.10;46.40;;;;;;6155028;23;20177;-87
2022/04/06 11:52:42;;;;;;;1.50;0.90;;;19.20;46.70;;;;;;6206645;23;20212;-86
2022/04/06 11:55:10;;;;;;;2.00;0.80;;;19.20;46.70;;;;;;6134155;23;20156;-88
2022/04/06 11:57:46;;;;;;;1.10;0.70;;;19.20;46.80;;;;;;6155053;23;20145;-88
2022/04/06 12:00:15;;;;;;;1.58;0.80;;;19.20;46.40;;;;;;6176932;23;20159;-88
2022/04/06 12:03:28;;;;;;;1.48;0.80;;;19.20;46.60;;;;;;6086711;23;20623;-86
2022/04/06 12:08:51;;;;;;;0.82;0.75;;;19.20;46.40;;;;;;6022931;23;20165;-85
2022/04/06 12:11:28;;;;;;;1.17;0.60;;;19.20;46.50;;;;;;6014248;23;20186;-86
2022/04/06 12:14:03;;;;;;;1.70;0.98;;;19.20;46.70;;;;;;6014166;23;20150;-86
2022/04/06 12:16:40;;;;;;;2.10;1.00;;;19.10;46.60;;;;;;6036123;23;20204;-86
2022/04/06 12:19:58;;;;;;;1.15;0.60;;;19.10;46.60;;;;;;6015240;23;20154;-87
2022/04/06 12:22:17;;;;;;;1.95;0.88;;;19.10;47.60;;;;;;6023998;23;20161;-87
2022/04/06 12:24:51;;;;;;;1.27;0.80;;;19.10;47.00;;;;;;6011768;23;20158;-87
2022/04/06 12:27:34;;;;;;;1.17;0.75;;;19.10;46.60;;;;;;6013634;23;20164;-88
2022/04/06 12:30:17;;;;;;;1.10;0.70;;;19.10;46.30;;;;;;6038503;23;20241;-89
2022/04/06 12:33:03;;;;;;;;;;;;;;;;;;;;;
2022/04/06 12:35:44;;;;;;;1.33;0.80;;;19.10;46.80;;;;;;6009259;23;20151;-88
2022/04/06 12:38:31;;;;;;;;;;;;;;;;;;;;;
2022/04/06 12:41:11;;;;;;;1.05;0.60;;;19.10;46.60;;;;;;5962237;24;20191;-87
2022/04/06 12:43:40;;;;;;;1.38;0.80;;;19.10;46.80;;;;;;5967511;24;20162;-87
2022/04/06 12:46:12;;;;;;;2.60;0.70;;;19.00;46.90;;;;;;6052673;23;20160;-88
2022/04/06 12:48:38;;;;;;;1.60;0.63;;;19.10;47.10;;;;;;6049022;23;20156;-88
2022/04/06 12:51:39;;;;;;;1.80;0.70;;;19.10;46.70;;;;;;6078817;23;20165;-88
2022/04/06 12:54:17;;;;;;;0.85;0.85;;;19.10;47.00;;;;;;6022219;23;20243;-87
2022/04/06 12:57:17;;;;;;;0.77;0.50;;;19.10;46.80;;;;;;6053679;23;20137;-88
2022/04/06 13:00:00;;;;;;;0.80;0.70;;;19.10;46.30;;;;;;6076972;23;20149;-86
2022/04/06 13:02:30;;;;;;;1.80;0.90;;;19.10;46.70;;;;;;6050545;23;20153;-88
2022/04/06 13:05:46;;;;;;;4.00;1.00;;;19.10;47.00;;;;;;6109836;23;20152;-88
2022/04/06 13:08:23;;;;;;;;;;;;;;;;;;;;;
2022/04/06 13:11:00;;;;;;;;;;;;;;;;;;;;;
2022/04/06 13:13:31;;;;;;;1.45;0.80;;;19.20;46.30;;;;;;5993268;23;20178;-87
2022/04/06 13:16:04;;;;;;;0.82;0.80;;;19.10;46.70;;;;;;5994912;23;20671;-88
2022/04/06 13:18:30;;;;;;;1.75;0.82;;;19.10;46.60;;;;;;5970420;23;20233;-85
2022/04/06 13:20:57;;;;;;;3.70;0.82;;;19.10;46.60;;;;;;6012730;23;20234;-82
2022/04/06 13:23:33;;;;;;;0.80;0.75;;;19.00;46.50;;;;;;6012467;23;20155;-83